createdAt,value
2022-11-19T00:03:05.264Z,5.90
2022-11-19T00:08:08.245Z,4.73
2022-11-19T00:13:14.077Z,5.03
2022-11-19T00:18:16.806Z,5.30
2022-11-19T00:23:19.731Z,5.30
2022-11-19T00:28:23.820Z,6.73
2022-11-19T00:33:26.509Z,4.60
2022-11-19T00:38:30.235Z,6.83
2022-11-19T00:43:50.043Z,4.47
2022-11-19T00:48:54.383Z,3.90
2022-11-19T00:53:57.475Z,5.30
2022-11-19T00:59:01.595Z,4.63
2022-11-19T01:04:04.365Z,5.97
2022-11-19T01:09:07.516Z,5.37
2022-11-19T01:14:11.575Z,6.60
2022-11-19T01:19:16.461Z,5.73
2022-11-19T01:24:19.423Z,3.63
2022-11-19T01:29:23.723Z,6.47
2022-11-19T01:34:26.479Z,5.50
2022-11-19T01:39:29.253Z,4.20
2022-11-19T01:45:00.495Z,5.23
2022-11-19T01:50:03.684Z,4.47
2022-11-19T01:55:08.088Z,4.73
2022-11-19T02:00:14.215Z,6.37
2022-11-19T02:05:17.213Z,5.27
2022-11-19T02:10:20.475Z,4.40
2022-11-19T02:15:33.498Z,4.33
2022-11-19T02:20:47.108Z,4.17
2022-11-19T02:26:04.251Z,4.83
2022-11-19T02:31:12.079Z,4.23
2022-11-19T02:36:19.970Z,4.50
2022-11-19T02:41:36.409Z,5.97
2022-11-19T02:46:40.880Z,4.57
2022-11-19T02:51:44.162Z,3.93
2022-11-19T02:56:51.329Z,4.30
2022-11-19T03:02:13.305Z,3.37
2022-11-19T03:07:19.405Z,3.50
2022-11-19T03:12:24.472Z,4.03
2022-11-19T03:17:31.670Z,4.80
2022-11-19T03:22:36.108Z,4.23
2022-11-19T03:27:41.867Z,5.40
2022-11-19T03:32:48.658Z,5.13
2022-11-19T03:37:54.270Z,4.73
2022-11-19T03:42:57.204Z,4.77
2022-11-19T03:48:02.316Z,4.03
2022-11-19T03:53:05.366Z,6.27
2022-11-19T03:58:08.831Z,4.27
2022-11-19T04:03:12.888Z,3.77
2022-11-19T04:08:15.646Z,3.83
2022-11-19T04:13:18.484Z,4.60
2022-11-19T04:18:22.531Z,5.20
2022-11-19T04:23:25.246Z,4.10
2022-11-19T04:28:27.966Z,5.77
2022-11-19T04:33:32.033Z,4.50
2022-11-19T04:38:35.472Z,5.43
2022-11-19T04:43:38.201Z,5.13
2022-11-19T04:48:42.242Z,5.40
2022-11-19T04:53:45.115Z,4.47
2022-11-19T04:58:47.867Z,5.33
2022-11-19T05:03:51.906Z,5.63
2022-11-19T05:08:54.631Z,5.33
2022-11-19T05:13:57.413Z,4.67
2022-11-19T05:19:01.478Z,5.60
2022-11-19T05:24:04.431Z,6.03
2022-11-19T05:29:07.136Z,5.87
2022-11-19T05:34:11.196Z,5.03
2022-11-19T05:39:20.247Z,5.53
2022-11-19T05:44:24.509Z,5.23
2022-11-19T05:49:28.617Z,5.53
2022-11-19T05:54:31.491Z,5.17
2022-11-19T05:59:34.275Z,5.23
2022-11-19T06:04:38.502Z,6.23
2022-11-19T06:09:41.411Z,6.23
2022-11-19T06:14:44.134Z,4.97
2022-11-19T06:19:48.301Z,4.73
2022-11-19T06:24:51.072Z,4.40
2022-11-19T06:29:56.349Z,5.80
2022-11-19T06:35:00.592Z,5.07
2022-11-19T06:40:03.316Z,4.90
2022-11-19T06:45:09.319Z,5.80
2022-11-19T06:50:13.416Z,6.33
2022-11-19T06:55:16.667Z,5.67
2022-11-19T07:00:19.776Z,5.83
2022-11-19T07:05:23.812Z,5.40
2022-11-19T07:10:26.532Z,5.27
2022-11-19T07:15:29.383Z,6.47
2022-11-19T07:20:33.997Z,5.13
2022-11-19T07:25:36.802Z,5.83
2022-11-19T07:30:39.511Z,5.20
2022-11-19T07:35:43.604Z,5.50
2022-11-19T07:40:53.699Z,5.57
2022-11-19T07:45:56.392Z,3.60
2022-11-19T07:51:00.456Z,7.20
2022-11-19T07:56:03.588Z,4.17
2022-11-19T08:01:10.390Z,6.47
2022-11-19T08:06:15.418Z,5.70
2022-11-19T08:11:18.877Z,6.37
2022-11-19T08:16:35.922Z,8.40
2022-11-19T08:21:43.588Z,7.33
2022-11-19T08:26:46.954Z,6.63
2022-11-19T08:31:50.834Z,7.80
2022-11-19T08:36:54.912Z,7.40
2022-11-19T08:42:15.168Z,6.83
2022-11-19T08:47:18.098Z,7.60
2022-11-19T08:52:22.192Z,5.80
2022-11-19T08:57:24.917Z,5.33
2022-11-19T09:02:27.722Z,7.93
2022-11-19T09:07:31.917Z,8.20
2022-11-19T09:12:34.629Z,6.53
2022-11-19T09:17:41.137Z,7.27
2022-11-19T09:22:47.879Z,7.80
2022-11-19T09:27:50.633Z,6.87
2022-11-19T09:32:53.439Z,7.23
2022-11-19T09:37:57.497Z,7.90
2022-11-19T09:43:08.499Z,5.90
2022-11-19T09:48:20.468Z,7.57
2022-11-19T09:53:24.671Z,7.60
2022-11-19T09:58:33.222Z,7.43
2022-11-19T10:03:36.015Z,7.03
2022-11-19T10:08:53.781Z,8.87
2022-11-19T10:14:02.792Z,10.30
2022-11-19T10:19:13.133Z,6.97
2022-11-19T10:24:23.602Z,8.47
2022-11-19T10:29:29.705Z,7.87
2022-11-19T10:34:34.830Z,10.13
2022-11-19T10:39:41.604Z,11.50
2022-11-19T10:44:47.994Z,9.57
2022-11-19T10:49:53.126Z,9.37
2022-11-19T10:55:01.180Z,9.13
2022-11-19T11:00:04.856Z,9.53
2022-11-19T11:05:12.579Z,6.90
2022-11-19T11:10:37.736Z,8.73
2022-11-19T11:15:45.740Z,7.20
2022-11-19T11:20:50.472Z,6.97
2022-11-19T11:26:01.406Z,8.00
2022-11-19T11:31:05.816Z,6.80
2022-11-19T11:36:10.316Z,6.87
2022-11-19T11:42:04.455Z,6.77
2022-11-19T11:46:44.228Z,5.87
2022-11-19T11:51:47.136Z,4.30
2022-11-19T11:56:51.459Z,5.93
2022-11-19T12:01:55.358Z,5.77
2022-11-19T12:07:08.679Z,4.73
2022-11-19T12:12:21.353Z,6.20
2022-11-19T12:17:35.449Z,5.60
2022-11-19T12:22:48.778Z,6.72
2022-11-19T12:28:02.222Z,5.68
2022-11-19T12:33:17.526Z,6.20
2022-11-19T12:38:26.381Z,5.47
2022-11-19T12:43:42.676Z,6.05
2022-11-19T12:48:55.163Z,3.63
2022-11-19T12:54:15.179Z,4.43
2022-11-19T12:59:32.606Z,4.35
2022-11-19T13:04:38.401Z,4.63
2022-11-19T13:09:44.780Z,3.60
2022-11-19T13:14:55.103Z,8.60
2022-11-19T13:20:04.338Z,7.78
2022-11-19T13:25:15.648Z,4.18
2022-11-19T13:30:21.514Z,3.33
2022-11-19T13:35:26.467Z,3.47
2022-11-19T13:40:32.913Z,4.17
2022-11-19T13:45:37.623Z,3.67
2022-11-19T13:50:42.097Z,4.07
2022-11-19T13:55:45.923Z,2.60
2022-11-19T14:01:13.105Z,3.13
2022-11-19T14:06:33.323Z,4.13
2022-11-19T14:12:03.017Z,3.77
2022-11-19T14:17:33.633Z,2.37
2022-11-19T14:23:00.534Z,2.60
2022-11-19T14:28:35.586Z,3.63
2022-11-19T14:33:59.998Z,4.23
2022-11-19T14:39:04.397Z,2.93
2022-11-19T14:44:26.567Z,4.30
2022-11-19T14:49:35.699Z,2.90
2022-11-19T14:54:41.305Z,2.50
2022-11-19T14:59:48.020Z,2.20
2022-11-19T15:04:56.464Z,2.03
2022-11-19T15:10:32.123Z,3.07
2022-11-19T15:15:38.834Z,3.10
2022-11-19T15:20:58.527Z,2.80
2022-11-19T15:26:08.406Z,3.60
2022-11-19T15:31:27.134Z,4.47
2022-11-19T15:36:32.945Z,4.53
2022-11-19T15:41:39.155Z,7.13
2022-11-19T15:46:46.605Z,6.23
2022-11-19T15:51:58.177Z,5.00
2022-11-19T15:57:03.916Z,8.40
2022-11-19T16:02:18.314Z,9.90
2022-11-19T16:07:25.928Z,9.03
2022-11-19T16:12:43.390Z,10.40
2022-11-19T16:17:48.612Z,11.87
2022-11-19T16:22:56.427Z,10.37
2022-11-19T16:28:01.877Z,5.83
2022-11-19T16:33:04.763Z,5.43
2022-11-19T16:38:13.488Z,5.80
2022-11-19T16:43:16.741Z,6.27
2022-11-19T16:48:59.246Z,6.00
2022-11-19T16:54:04.225Z,9.30
2022-11-19T16:59:07.436Z,6.53
2022-11-19T17:04:15.325Z,8.17
2022-11-19T17:09:41.470Z,6.13
2022-11-19T17:14:52.929Z,5.07
2022-11-19T17:19:56.452Z,5.53
2022-11-19T17:25:02.700Z,5.63
2022-11-19T17:30:10.436Z,6.00
2022-11-19T17:35:34.699Z,7.47
2022-11-19T17:40:45.688Z,5.60
2022-11-19T17:45:48.403Z,7.43
2022-11-19T17:50:52.251Z,7.93
2022-11-19T17:55:57.448Z,6.70
2022-11-19T18:01:00.175Z,7.47
2022-11-19T18:06:03.147Z,5.53
2022-11-19T18:11:07.779Z,7.50
2022-11-19T18:16:14.174Z,6.73
2022-11-19T18:21:18.472Z,8.73
2022-11-19T18:26:23.825Z,7.57
2022-11-19T18:31:28.359Z,6.67
2022-11-19T18:36:31.294Z,7.23
2022-11-19T18:41:35.497Z,6.17
2022-11-19T18:46:38.269Z,9.47
2022-11-19T18:51:42.330Z,8.27
2022-11-19T18:56:46.583Z,8.77
2022-11-19T19:01:49.485Z,9.77
2022-11-19T19:06:52.492Z,10.13
2022-11-19T19:12:14.363Z,8.20
2022-11-19T19:17:17.310Z,10.60
2022-11-19T19:22:20.578Z,11.00
2022-11-19T19:27:24.668Z,10.20
2022-11-19T19:32:27.518Z,16.47
2022-11-19T19:37:30.318Z,13.93
2022-11-19T19:42:39.843Z,19.53
2022-11-19T19:47:44.009Z,13.10
2022-11-19T19:52:47.464Z,15.67
2022-11-19T19:57:51.746Z,17.43
2022-11-19T20:02:54.536Z,14.70
2022-11-19T20:07:57.304Z,15.43
2022-11-19T20:13:18.822Z,16.53
2022-11-19T20:18:21.604Z,20.17
2022-11-19T20:23:24.333Z,19.90
2022-11-19T20:28:28.549Z,21.50
2022-11-19T20:33:31.456Z,25.67
2022-11-19T20:38:36.187Z,22.47
2022-11-19T20:43:57.400Z,19.93
2022-11-19T20:49:00.114Z,17.47
2022-11-19T20:54:03.090Z,18.00
2022-11-19T20:59:07.589Z,17.87
2022-11-19T21:04:11.516Z,15.73
2022-11-19T21:09:15.587Z,17.17
2022-11-19T21:14:19.740Z,12.10
2022-11-19T21:19:22.747Z,12.47
2022-11-19T21:24:25.848Z,11.93
2022-11-19T21:29:29.910Z,13.23
2022-11-19T21:34:33.788Z,15.37
2022-11-19T21:39:36.522Z,12.87
2022-11-19T21:44:41.175Z,11.83
2022-11-19T21:49:44.038Z,14.97
2022-11-19T21:54:46.766Z,11.37
2022-11-19T21:59:50.905Z,10.20
2022-11-19T22:04:53.600Z,12.80
2022-11-19T22:09:56.329Z,10.83
2022-11-19T22:15:00.336Z,13.00
2022-11-19T22:20:03.089Z,13.63
2022-11-19T22:25:06.409Z,14.57
2022-11-19T22:30:11.938Z,12.57
2022-11-19T22:35:14.730Z,13.23
2022-11-19T22:40:17.613Z,11.37
2022-11-19T22:45:21.688Z,11.43
2022-11-19T22:50:25.372Z,10.90
2022-11-19T22:55:28.237Z,13.40
2022-11-19T23:00:40.972Z,15.73
2022-11-19T23:05:47.178Z,13.43
2022-11-19T23:10:50.168Z,12.33
2022-11-19T23:16:05.891Z,14.60
2022-11-19T23:21:10.409Z,13.30
2022-11-19T23:26:14.666Z,9.83
2022-11-19T23:31:20.162Z,13.37
2022-11-19T23:36:24.179Z,11.50
2022-11-19T23:41:27.332Z,14.63
2022-11-19T23:46:32.748Z,12.43
2022-11-19T23:51:37.343Z,11.37
2022-11-19T23:56:40.149Z,18.43
